sensor_id;sensor_type;location;lat;lon;timestamp;pressure;altitude;pressure_sealevel;temperature
72278;BMP280;61204;49.980;8.358;2022-08-06T00:02:06;101340.53;;;16.50
72278;BMP280;61204;49.980;8.358;2022-08-06T00:04:31;101339.09;;;16.49
72278;BMP280;61204;49.980;8.358;2022-08-06T00:06:57;101339.94;;;16.40
72278;BMP280;61204;49.980;8.358;2022-08-06T00:09:23;101346.44;;;16.44
72278;BMP280;61204;49.980;8.358;2022-08-06T00:11:49;101349.47;;;16.25
72278;BMP280;61204;49.980;8.358;2022-08-06T00:14:15;101348.28;;;16.04
72278;BMP280;61204;49.980;8.358;2022-08-06T00:16:41;101355.88;;;16.04
72278;BMP280;61204;49.980;8.358;2022-08-06T00:19:06;101356.81;;;15.97
72278;BMP280;61204;49.980;8.358;2022-08-06T00:21:32;101354.75;;;15.86
72278;BMP280;61204;49.980;8.358;2022-08-06T00:23:58;101356.88;;;15.75
72278;BMP280;61204;49.980;8.358;2022-08-06T00:26:24;101370.94;;;15.68
72278;BMP280;61204;49.980;8.358;2022-08-06T00:28:50;101367.34;;;15.65
72278;BMP280;61204;49.980;8.358;2022-08-06T00:31:16;101369.56;;;15.57
72278;BMP280;61204;49.980;8.358;2022-08-06T00:33:42;101378.72;;;15.48
72278;BMP280;61204;49.980;8.358;2022-08-06T00:36:08;101381.56;;;15.38
72278;BMP280;61204;49.980;8.358;2022-08-06T00:38:34;101385.38;;;15.33
72278;BMP280;61204;49.980;8.358;2022-08-06T00:41:01;101390.63;;;15.29
72278;BMP280;61204;49.980;8.358;2022-08-06T00:43:28;101397.84;;;15.23
72278;BMP280;61204;49.980;8.358;2022-08-06T00:45:54;101409.78;;;15.15
72278;BMP280;61204;49.980;8.358;2022-08-06T00:48:20;101402.41;;;15.08
72278;BMP280;61204;49.980;8.358;2022-08-06T00:50:46;101402.28;;;15.06
72278;BMP280;61204;49.980;8.358;2022-08-06T00:53:11;101403.94;;;15.21
72278;BMP280;61204;49.980;8.358;2022-08-06T00:55:37;101409.53;;;15.11
72278;BMP280;61204;49.980;8.358;2022-08-06T00:58:04;101422.50;;;15.09
72278;BMP280;61204;49.980;8.358;2022-08-06T01:00:32;101414.66;;;15.05
72278;BMP280;61204;49.980;8.358;2022-08-06T01:02:59;101417.16;;;15.01
72278;BMP280;61204;49.980;8.358;2022-08-06T01:05:25;101419.16;;;15.10
72278;BMP280;61204;49.980;8.358;2022-08-06T01:07:51;101420.47;;;15.09
72278;BMP280;61204;49.980;8.358;2022-08-06T01:10:17;101423.84;;;15.20
72278;BMP280;61204;49.980;8.358;2022-08-06T01:12:42;101425.34;;;15.21
72278;BMP280;61204;49.980;8.358;2022-08-06T01:15:08;101425.16;;;15.28
72278;BMP280;61204;49.980;8.358;2022-08-06T01:17:43;101440.91;;;15.37
72278;BMP280;61204;49.980;8.358;2022-08-06T01:20:34;101433.72;;;15.44
72278;BMP280;61204;49.980;8.358;2022-08-06T01:26:49;101430.84;;;15.21
72278;BMP280;61204;49.980;8.358;2022-08-06T01:29:28;101436.13;;;15.17
72278;BMP280;61204;49.980;8.358;2022-08-06T01:32:05;101435.81;;;15.12
72278;BMP280;61204;49.980;8.358;2022-08-06T01:34:57;101431.56;;;15.00
72278;BMP280;61204;49.980;8.358;2022-08-06T01:37:34;101439.16;;;14.90
72278;BMP280;61204;49.980;8.358;2022-08-06T01:40:15;101431.22;;;14.84
72278;BMP280;61204;49.980;8.358;2022-08-06T01:42:48;101437.91;;;14.81
72278;BMP280;61204;49.980;8.358;2022-08-06T01:45:20;101443.50;;;14.71
72278;BMP280;61204;49.980;8.358;2022-08-06T01:47:53;101437.84;;;14.59
72278;BMP280;61204;49.980;8.358;2022-08-06T01:50:40;101427.84;;;14.64
72278;BMP280;61204;49.980;8.358;2022-08-06T01:53:15;101428.53;;;14.65
72278;BMP280;61204;49.980;8.358;2022-08-06T01:55:54;101435.25;;;14.62
72278;BMP280;61204;49.980;8.358;2022-08-06T01:58:29;101446.88;;;14.60
72278;BMP280;61204;49.980;8.358;2022-08-06T02:01:03;101442.66;;;14.59
72278;BMP280;61204;49.980;8.358;2022-08-06T02:03:35;101449.38;;;14.56
72278;BMP280;61204;49.980;8.358;2022-08-06T02:06:07;101445.31;;;14.57
72278;BMP280;61204;49.980;8.358;2022-08-06T02:08:41;101444.41;;;14.54
72278;BMP280;61204;49.980;8.358;2022-08-06T02:11:11;101448.06;;;14.47
72278;BMP280;61204;49.980;8.358;2022-08-06T02:13:38;101448.25;;;14.40
72278;BMP280;61204;49.980;8.358;2022-08-06T02:16:09;101447.13;;;14.33
72278;BMP280;61204;49.980;8.358;2022-08-06T02:18:40;101466.28;;;14.31
72278;BMP280;61204;49.980;8.358;2022-08-06T02:21:15;101463.25;;;14.27
72278;BMP280;61204;49.980;8.358;2022-08-06T02:23:50;101465.00;;;14.22
72278;BMP280;61204;49.980;8.358;2022-08-06T02:26:19;101461.66;;;14.24
72278;BMP280;61204;49.980;8.358;2022-08-06T02:28:52;101464.28;;;14.22
72278;BMP280;61204;49.980;8.358;2022-08-06T02:31:23;101456.44;;;14.28
72278;BMP280;61204;49.980;8.358;2022-08-06T02:33:49;101459.63;;;14.24
72278;BMP280;61204;49.980;8.358;2022-08-06T02:39:21;101457.31;;;14.21
72278;BMP280;61204;49.980;8.358;2022-08-06T02:42:03;101470.81;;;14.17
72278;BMP280;61204;49.980;8.358;2022-08-06T02:44:43;101477.94;;;14.20
72278;BMP280;61204;49.980;8.358;2022-08-06T02:47:30;101480.41;;;14.16
72278;BMP280;61204;49.980;8.358;2022-08-06T02:50:08;101474.59;;;14.21
72278;BMP280;61204;49.980;8.358;2022-08-06T02:52:42;101479.50;;;14.23
72278;BMP280;61204;49.980;8.358;2022-08-06T02:55:18;101477.22;;;14.19
72278;BMP280;61204;49.980;8.358;2022-08-06T02:57:53;101477.66;;;14.16
72278;BMP280;61204;49.980;8.358;2022-08-06T03:00:25;101481.41;;;14.20
72278;BMP280;61204;49.980;8.358;2022-08-06T03:02:56;101484.59;;;14.17
72278;BMP280;61204;49.980;8.358;2022-08-06T03:05:27;101488.97;;;14.20
72278;BMP280;61204;49.980;8.358;2022-08-06T03:07:56;101485.03;;;14.13
72278;BMP280;61204;49.980;8.358;2022-08-06T03:10:25;101486.66;;;14.07
72278;BMP280;61204;49.980;8.358;2022-08-06T03:12:54;101490.00;;;13.95
72278;BMP280;61204;49.980;8.358;2022-08-06T03:15:23;101488.41;;;13.92
72278;BMP280;61204;49.980;8.358;2022-08-06T03:17:51;101494.78;;;13.95
72278;BMP280;61204;49.980;8.358;2022-08-06T03:20:24;101501.47;;;13.92
72278;BMP280;61204;49.980;8.358;2022-08-06T03:22:55;101494.19;;;13.87
72278;BMP280;61204;49.980;8.358;2022-08-06T03:25:25;101499.59;;;13.85
72278;BMP280;61204;49.980;8.358;2022-08-06T03:27:54;101494.91;;;13.68
72278;BMP280;61204;49.980;8.358;2022-08-06T03:30:22;101500.31;;;13.66
72278;BMP280;61204;49.980;8.358;2022-08-06T03:32:49;101502.75;;;13.62
72278;BMP280;61204;49.980;8.358;2022-08-06T03:35:17;101497.41;;;13.64
72278;BMP280;61204;49.980;8.358;2022-08-06T03:37:47;101500.00;;;13.62
72278;BMP280;61204;49.980;8.358;2022-08-06T03:40:18;101500.72;;;13.53
72278;BMP280;61204;49.980;8.358;2022-08-06T03:42:46;101497.19;;;13.42
72278;BMP280;61204;49.980;8.358;2022-08-06T03:45:12;101504.44;;;13.38
72278;BMP280;61204;49.980;8.358;2022-08-06T03:47:45;101506.47;;;13.37
72278;BMP280;61204;49.980;8.358;2022-08-06T03:50:40;101512.69;;;13.28
72278;BMP280;61204;49.980;8.358;2022-08-06T03:53:17;101505.72;;;13.27
72278;BMP280;61204;49.980;8.358;2022-08-06T03:55:55;101509.66;;;13.24
72278;BMP280;61204;49.980;8.358;2022-08-06T03:58:25;101512.13;;;13.20
72278;BMP280;61204;49.980;8.358;2022-08-06T04:00:56;101516.56;;;13.15
72278;BMP280;61204;49.980;8.358;2022-08-06T04:03:30;101520.19;;;13.18
72278;BMP280;61204;49.980;8.358;2022-08-06T04:05:59;101516.44;;;13.13
72278;BMP280;61204;49.980;8.358;2022-08-06T04:08:27;101516.84;;;13.10
72278;BMP280;61204;49.980;8.358;2022-08-06T04:10:53;101506.66;;;13.03
72278;BMP280;61204;49.980;8.358;2022-08-06T04:13:22;101511.88;;;13.08
72278;BMP280;61204;49.980;8.358;2022-08-06T04:15:51;101513.19;;;13.07
72278;BMP280;61204;49.980;8.358;2022-08-06T04:18:23;101515.94;;;13.07
72278;BMP280;61204;49.980;8.358;2022-08-06T04:20:58;101515.00;;;13.12
72278;BMP280;61204;49.980;8.358;2022-08-06T04:23:28;101518.06;;;13.26
72278;BMP280;61204;49.980;8.358;2022-08-06T04:25:57;101515.75;;;13.32
72278;BMP280;61204;49.980;8.358;2022-08-06T04:28:27;101525.00;;;13.27
72278;BMP280;61204;49.980;8.358;2022-08-06T04:30:57;101527.63;;;13.25
72278;BMP280;61204;49.980;8.358;2022-08-06T04:33:25;101530.50;;;13.27
72278;BMP280;61204;49.980;8.358;2022-08-06T04:35:53;101530.13;;;13.40
72278;BMP280;61204;49.980;8.358;2022-08-06T04:38:21;101529.69;;;13.54
72278;BMP280;61204;49.980;8.358;2022-08-06T04:40:49;101535.38;;;13.56
72278;BMP280;61204;49.980;8.358;2022-08-06T04:43:16;101537.72;;;13.69
72278;BMP280;61204;49.980;8.358;2022-08-06T04:45:43;101541.78;;;13.68
72278;BMP280;61204;49.980;8.358;2022-08-06T04:48:11;101544.53;;;13.68
72278;BMP280;61204;49.980;8.358;2022-08-06T04:50:38;101544.53;;;13.68
72278;BMP280;61204;49.980;8.358;2022-08-06T04:53:10;101545.97;;;13.69
72278;BMP280;61204;49.980;8.358;2022-08-06T04:55:41;101545.84;;;13.86
72278;BMP280;61204;49.980;8.358;2022-08-06T04:58:14;101551.69;;;14.10
72278;BMP280;61204;49.980;8.358;2022-08-06T05:00:44;101557.28;;;14.41
72278;BMP280;61204;49.980;8.358;2022-08-06T05:03:13;101554.03;;;14.73
72278;BMP280;61204;49.980;8.358;2022-08-06T05:05:48;101556.38;;;15.08
72278;BMP280;61204;49.980;8.358;2022-08-06T05:08:23;101556.38;;;15.39
72278;BMP280;61204;49.980;8.358;2022-08-06T05:11:04;101562.97;;;15.77
72278;BMP280;61204;49.980;8.358;2022-08-06T05:13:44;101570.31;;;16.05
72278;BMP280;61204;49.980;8.358;2022-08-06T05:16:17;101579.06;;;16.34
72278;BMP280;61204;49.980;8.358;2022-08-06T05:18:50;101575.66;;;16.69
72278;BMP280;61204;49.980;8.358;2022-08-06T05:21:26;101568.28;;;16.97
72278;BMP280;61204;49.980;8.358;2022-08-06T05:23:57;101578.38;;;17.28
72278;BMP280;61204;49.980;8.358;2022-08-06T05:26:23;101583.03;;;17.60
72278;BMP280;61204;49.980;8.358;2022-08-06T05:28:49;101581.88;;;17.77
72278;BMP280;61204;49.980;8.358;2022-08-06T05:31:15;101586.50;;;17.98
72278;BMP280;61204;49.980;8.358;2022-08-06T05:33:54;101588.44;;;18.21
72278;BMP280;61204;49.980;8.358;2022-08-06T05:36:20;101586.31;;;18.33
72278;BMP280;61204;49.980;8.358;2022-08-06T05:38:46;101591.81;;;18.58
72278;BMP280;61204;49.980;8.358;2022-08-06T05:41:12;101591.53;;;18.93
72278;BMP280;61204;49.980;8.358;2022-08-06T05:43:38;101584.22;;;19.00
72278;BMP280;61204;49.980;8.358;2022-08-06T05:46:10;101597.56;;;19.45
72278;BMP280;61204;49.980;8.358;2022-08-06T05:49:04;101592.88;;;19.92
72278;BMP280;61204;49.980;8.358;2022-08-06T05:51:40;101586.25;;;20.15
72278;BMP280;61204;49.980;8.358;2022-08-06T05:54:55;101600.03;;;20.43
72278;BMP280;61204;49.980;8.358;2022-08-06T05:57:37;101594.75;;;21.16
72278;BMP280;61204;49.980;8.358;2022-08-06T06:00:11;101600.69;;;21.24
72278;BMP280;61204;49.980;8.358;2022-08-06T06:02:52;101595.19;;;21.44
72278;BMP280;61204;49.980;8.358;2022-08-06T06:05:22;101600.25;;;21.65
72278;BMP280;61204;49.980;8.358;2022-08-06T06:07:50;101606.47;;;22.01
72278;BMP280;61204;49.980;8.358;2022-08-06T06:10:21;101611.63;;;21.89
72278;BMP280;61204;49.980;8.358;2022-08-06T06:12:52;101611.13;;;21.95
72278;BMP280;61204;49.980;8.358;2022-08-06T06:15:19;101606.03;;;22.07
72278;BMP280;61204;49.980;8.358;2022-08-06T06:17:58;101611.84;;;22.52
72278;BMP280;61204;49.980;8.358;2022-08-06T06:20:44;101615.41;;;22.97
72278;BMP280;61204;49.980;8.358;2022-08-06T06:23:25;101621.75;;;23.41
72278;BMP280;61204;49.980;8.358;2022-08-06T06:26:27;101625.91;;;24.61
72278;BMP280;61204;49.980;8.358;2022-08-06T06:32:00;101628.34;;;23.97
72278;BMP280;61204;49.980;8.358;2022-08-06T06:37:41;101627.94;;;24.07
72278;BMP280;61204;49.980;8.358;2022-08-06T06:41:09;101627.25;;;24.06
72278;BMP280;61204;49.980;8.358;2022-08-06T06:46:58;101638.16;;;23.07
72278;BMP280;61204;49.980;8.358;2022-08-06T06:49:37;101633.25;;;23.73
72278;BMP280;61204;49.980;8.358;2022-08-06T06:52:21;101637.63;;;24.28
72278;BMP280;61204;49.980;8.358;2022-08-06T06:55:00;101636.25;;;24.55
72278;BMP280;61204;49.980;8.358;2022-08-06T06:58:06;101640.63;;;24.88
72278;BMP280;61204;49.980;8.358;2022-08-06T07:00:49;101640.28;;;25.03
72278;BMP280;61204;49.980;8.358;2022-08-06T07:03:18;101637.03;;;24.85
72278;BMP280;61204;49.980;8.358;2022-08-06T07:05:49;101637.94;;;25.86
72278;BMP280;61204;49.980;8.358;2022-08-06T07:08:19;101631.84;;;25.97
72278;BMP280;61204;49.980;8.358;2022-08-06T07:10:49;101635.31;;;26.30
72278;BMP280;61204;49.980;8.358;2022-08-06T07:13:17;101637.41;;;25.93
72278;BMP280;61204;49.980;8.358;2022-08-06T07:15:46;101633.63;;;26.97
72278;BMP280;61204;49.980;8.358;2022-08-06T07:18:15;101627.63;;;25.64
72278;BMP280;61204;49.980;8.358;2022-08-06T07:20:43;101634.19;;;25.73
72278;BMP280;61204;49.980;8.358;2022-08-06T07:23:10;101639.69;;;25.37
72278;BMP280;61204;49.980;8.358;2022-08-06T07:25:40;101635.16;;;25.88
72278;BMP280;61204;49.980;8.358;2022-08-06T07:28:12;101634.91;;;26.09
72278;BMP280;61204;49.980;8.358;2022-08-06T07:30:41;101639.88;;;26.91
72278;BMP280;61204;49.980;8.358;2022-08-06T07:33:09;101637.84;;;25.81
72278;BMP280;61204;49.980;8.358;2022-08-06T07:35:40;101638.44;;;26.10
72278;BMP280;61204;49.980;8.358;2022-08-06T07:38:09;101643.00;;;26.67
72278;BMP280;61204;49.980;8.358;2022-08-06T07:40:46;101640.25;;;26.71
72278;BMP280;61204;49.980;8.358;2022-08-06T07:43:21;101638.47;;;27.40
72278;BMP280;61204;49.980;8.358;2022-08-06T07:45:56;101652.97;;;28.35
72278;BMP280;61204;49.980;8.358;2022-08-06T07:48:38;101651.03;;;28.58
72278;BMP280;61204;49.980;8.358;2022-08-06T07:51:14;101648.78;;;28.36
72278;BMP280;61204;49.980;8.358;2022-08-06T07:53:44;101649.13;;;27.46
72278;BMP280;61204;49.980;8.358;2022-08-06T07:56:11;101646.22;;;26.49
72278;BMP280;61204;49.980;8.358;2022-08-06T07:58:38;101650.59;;;27.49
72278;BMP280;61204;49.980;8.358;2022-08-06T09:03:15;101622.84;;;30.64
72278;BMP280;61204;49.980;8.358;2022-08-06T09:05:41;101626.16;;;31.40
72278;BMP280;61204;49.980;8.358;2022-08-06T09:08:09;101631.31;;;32.23
72278;BMP280;61204;49.980;8.358;2022-08-06T09:10:36;101634.88;;;30.06
72278;BMP280;61204;49.980;8.358;2022-08-06T09:13:03;101635.38;;;29.38
72278;BMP280;61204;49.980;8.358;2022-08-06T09:15:29;101636.63;;;29.08
72278;BMP280;61204;49.980;8.358;2022-08-06T09:17:55;101640.53;;;30.10
72278;BMP280;61204;49.980;8.358;2022-08-06T09:20:21;101644.09;;;30.21
72278;BMP280;61204;49.980;8.358;2022-08-06T09:22:47;101636.88;;;29.53
72278;BMP280;61204;49.980;8.358;2022-08-06T09:25:49;101642.56;;;29.85
72278;BMP280;61204;49.980;8.358;2022-08-06T09:28:32;101633.25;;;29.34
72278;BMP280;61204;49.980;8.358;2022-08-06T09:31:11;101636.69;;;31.62
72278;BMP280;61204;49.980;8.358;2022-08-06T09:34:03;101634.38;;;32.72
72278;BMP280;61204;49.980;8.358;2022-08-06T09:36:44;101639.81;;;32.21
72278;BMP280;61204;49.980;8.358;2022-08-06T09:39:12;101632.06;;;32.15
72278;BMP280;61204;49.980;8.358;2022-08-06T09:41:49;101623.66;;;32.01
72278;BMP280;61204;49.980;8.358;2022-08-06T09:44:16;101630.66;;;30.62
72278;BMP280;61204;49.980;8.358;2022-08-06T09:49:13;101640.97;;;29.27
72278;BMP280;61204;49.980;8.358;2022-08-06T09:51:41;101633.44;;;29.93
72278;BMP280;61204;49.980;8.358;2022-08-06T09:54:09;101633.91;;;31.52
72278;BMP280;61204;49.980;8.358;2022-08-06T09:56:44;101629.53;;;33.22
72278;BMP280;61204;49.980;8.358;2022-08-06T09:59:22;101626.84;;;33.61
72278;BMP280;61204;49.980;8.358;2022-08-06T10:01:48;101622.13;;;32.86
72278;BMP280;61204;49.980;8.358;2022-08-06T10:04:23;101630.50;;;32.35
72278;BMP280;61204;49.980;8.358;2022-08-06T10:07:10;101631.28;;;30.83
72278;BMP280;61204;49.980;8.358;2022-08-06T10:09:50;101622.13;;;29.95
72278;BMP280;61204;49.980;8.358;2022-08-06T10:12:20;101627.63;;;29.46
72278;BMP280;61204;49.980;8.358;2022-08-06T10:14:48;101618.44;;;31.22
72278;BMP280;61204;49.980;8.358;2022-08-06T10:17:15;101631.50;;;32.76
72278;BMP280;61204;49.980;8.358;2022-08-06T10:19:47;101621.84;;;32.47
72278;BMP280;61204;49.980;8.358;2022-08-06T10:22:30;101616.78;;;31.66
72278;BMP280;61204;49.980;8.358;2022-08-06T10:25:00;101625.59;;;31.01
72278;BMP280;61204;49.980;8.358;2022-08-06T10:27:31;101618.81;;;31.90
72278;BMP280;61204;49.980;8.358;2022-08-06T10:30:07;101618.59;;;30.65
72278;BMP280;61204;49.980;8.358;2022-08-06T10:32:52;101624.28;;;30.27
72278;BMP280;61204;49.980;8.358;2022-08-06T10:35:24;101617.50;;;32.56
72278;BMP280;61204;49.980;8.358;2022-08-06T10:38:03;101614.28;;;31.01
72278;BMP280;61204;49.980;8.358;2022-08-06T10:40:33;101610.75;;;32.18
72278;BMP280;61204;49.980;8.358;2022-08-06T10:43:03;101626.63;;;31.81
72278;BMP280;61204;49.980;8.358;2022-08-06T10:45:31;101614.31;;;33.44
72278;BMP280;61204;49.980;8.358;2022-08-06T10:47:58;101609.34;;;32.87
72278;BMP280;61204;49.980;8.358;2022-08-06T10:50:24;101606.94;;;33.10
72278;BMP280;61204;49.980;8.358;2022-08-06T10:52:51;101608.16;;;32.70
72278;BMP280;61204;49.980;8.358;2022-08-06T10:55:19;101608.81;;;31.97
72278;BMP280;61204;49.980;8.358;2022-08-06T10:57:45;101609.88;;;29.25
72278;BMP280;61204;49.980;8.358;2022-08-06T11:00:12;101593.03;;;30.98
72278;BMP280;61204;49.980;8.358;2022-08-06T11:05:36;101609.13;;;31.48
72278;BMP280;61204;49.980;8.358;2022-08-06T11:08:36;101600.22;;;30.52
72278;BMP280;61204;49.980;8.358;2022-08-06T11:11:30;101608.63;;;29.67
72278;BMP280;61204;49.980;8.358;2022-08-06T11:14:51;101588.59;;;31.45
72278;BMP280;61204;49.980;8.358;2022-08-06T11:17:18;101585.38;;;30.52
72278;BMP280;61204;49.980;8.358;2022-08-06T11:19:46;101598.78;;;29.86
72278;BMP280;61204;49.980;8.358;2022-08-06T11:25:03;101589.16;;;31.68
72278;BMP280;61204;49.980;8.358;2022-08-06T11:30:19;101581.09;;;32.03
72278;BMP280;61204;49.980;8.358;2022-08-06T11:32:50;101585.88;;;31.23
72278;BMP280;61204;49.980;8.358;2022-08-06T11:38:09;101582.97;;;34.69
72278;BMP280;61204;49.980;8.358;2022-08-06T11:43:44;101581.59;;;33.45
72278;BMP280;61204;49.980;8.358;2022-08-06T11:46:37;101564.44;;;33.51
72278;BMP280;61204;49.980;8.358;2022-08-06T11:49:17;101577.78;;;32.52
72278;BMP280;61204;49.980;8.358;2022-08-06T11:57:26;101548.41;;;31.06
72278;BMP280;61204;49.980;8.358;2022-08-06T12:05:31;101578.63;;;33.02
72278;BMP280;61204;49.980;8.358;2022-08-06T12:08:17;101570.56;;;31.88
72278;BMP280;61204;49.980;8.358;2022-08-06T12:11:21;101574.75;;;32.72
72278;BMP280;61204;49.980;8.358;2022-08-06T12:13:49;101572.97;;;32.40
72278;BMP280;61204;49.980;8.358;2022-08-06T12:16:30;101576.34;;;32.55
72278;BMP280;61204;49.980;8.358;2022-08-06T12:19:04;101564.91;;;33.18
72278;BMP280;61204;49.980;8.358;2022-08-06T12:21:39;101572.97;;;31.51
72278;BMP280;61204;49.980;8.358;2022-08-06T12:24:07;101564.34;;;33.08
72278;BMP280;61204;49.980;8.358;2022-08-06T12:26:33;101558.97;;;32.20
72278;BMP280;61204;49.980;8.358;2022-08-06T12:29:02;101567.16;;;33.12
72278;BMP280;61204;49.980;8.358;2022-08-06T12:31:32;101566.63;;;33.46
72278;BMP280;61204;49.980;8.358;2022-08-06T12:34:01;101551.13;;;34.23
72278;BMP280;61204;49.980;8.358;2022-08-06T12:36:30;101544.22;;;33.24
72278;BMP280;61204;49.980;8.358;2022-08-06T12:38:59;101545.00;;;34.45
72278;BMP280;61204;49.980;8.358;2022-08-06T12:41:33;101554.34;;;34.75
72278;BMP280;61204;49.980;8.358;2022-08-06T12:44:01;101555.78;;;33.12
72278;BMP280;61204;49.980;8.358;2022-08-06T12:46:27;101546.34;;;33.25
72278;BMP280;61204;49.980;8.358;2022-08-06T12:48:52;101537.97;;;30.52
72278;BMP280;61204;49.980;8.358;2022-08-06T12:51:20;101546.34;;;32.05
72278;BMP280;61204;49.980;8.358;2022-08-06T12:53:51;101540.91;;;32.54
72278;BMP280;61204;49.980;8.358;2022-08-06T12:56:29;101548.91;;;31.43
72278;BMP280;61204;49.980;8.358;2022-08-06T12:58:57;101545.09;;;29.90
72278;BMP280;61204;49.980;8.358;2022-08-06T13:01:30;101541.13;;;31.42
72278;BMP280;61204;49.980;8.358;2022-08-06T13:04:01;101541.78;;;31.53
72278;BMP280;61204;49.980;8.358;2022-08-06T13:06:33;101540.28;;;31.68
72278;BMP280;61204;49.980;8.358;2022-08-06T13:09:02;101533.44;;;32.20
72278;BMP280;61204;49.980;8.358;2022-08-06T13:11:32;101540.50;;;32.84
72278;BMP280;61204;49.980;8.358;2022-08-06T13:14:08;101539.78;;;32.22
72278;BMP280;61204;49.980;8.358;2022-08-06T13:16:42;101538.59;;;33.20
72278;BMP280;61204;49.980;8.358;2022-08-06T13:19:15;101531.34;;;32.14
72278;BMP280;61204;49.980;8.358;2022-08-06T13:21:44;101520.69;;;32.78
72278;BMP280;61204;49.980;8.358;2022-08-06T13:24:26;101529.88;;;33.34
72278;BMP280;61204;49.980;8.358;2022-08-06T13:26:53;101531.81;;;32.96
72278;BMP280;61204;49.980;8.358;2022-08-06T13:29:24;101516.91;;;32.39
72278;BMP280;61204;49.980;8.358;2022-08-06T13:32:06;101515.91;;;30.95
72278;BMP280;61204;49.980;8.358;2022-08-06T13:34:48;101519.31;;;31.16
72278;BMP280;61204;49.980;8.358;2022-08-06T13:37:17;101510.63;;;31.46
72278;BMP280;61204;49.980;8.358;2022-08-06T13:40:18;101515.69;;;32.19
72278;BMP280;61204;49.980;8.358;2022-08-06T13:42:59;101517.47;;;31.80
72278;BMP280;61204;49.980;8.358;2022-08-06T13:45:26;101512.56;;;32.48
72278;BMP280;61204;49.980;8.358;2022-08-06T13:48:08;101503.44;;;31.64
72278;BMP280;61204;49.980;8.358;2022-08-06T13:50:43;101498.59;;;31.48
72278;BMP280;61204;49.980;8.358;2022-08-06T13:53:12;101494.09;;;31.77
72278;BMP280;61204;49.980;8.358;2022-08-06T13:55:42;101498.97;;;31.87
72278;BMP280;61204;49.980;8.358;2022-08-06T13:58:09;101488.50;;;30.15
72278;BMP280;61204;49.980;8.358;2022-08-06T14:00:36;101492.00;;;29.38
72278;BMP280;61204;49.980;8.358;2022-08-06T14:03:03;101492.03;;;30.27
72278;BMP280;61204;49.980;8.358;2022-08-06T14:05:29;101493.38;;;30.55
72278;BMP280;61204;49.980;8.358;2022-08-06T14:07:55;101499.72;;;30.73
72278;BMP280;61204;49.980;8.358;2022-08-06T14:10:21;101490.28;;;31.18
72278;BMP280;61204;49.980;8.358;2022-08-06T14:12:47;101492.75;;;29.53
72278;BMP280;61204;49.980;8.358;2022-08-06T14:15:33;101489.25;;;29.95
72278;BMP280;61204;49.980;8.358;2022-08-06T14:18:00;101496.81;;;30.84
72278;BMP280;61204;49.980;8.358;2022-08-06T14:20:26;101490.66;;;29.72
72278;BMP280;61204;49.980;8.358;2022-08-06T14:22:53;101486.34;;;29.48
72278;BMP280;61204;49.980;8.358;2022-08-06T14:25:20;101487.03;;;30.52
72278;BMP280;61204;49.980;8.358;2022-08-06T14:27:47;101496.06;;;28.94
72278;BMP280;61204;49.980;8.358;2022-08-06T14:30:14;101479.59;;;28.50
72278;BMP280;61204;49.980;8.358;2022-08-06T14:32:41;101485.97;;;28.47
72278;BMP280;61204;49.980;8.358;2022-08-06T14:35:09;101486.38;;;29.46
72278;BMP280;61204;49.980;8.358;2022-08-06T14:37:35;101478.59;;;30.26
72278;BMP280;61204;49.980;8.358;2022-08-06T14:40:02;101484.28;;;29.75
72278;BMP280;61204;49.980;8.358;2022-08-06T14:42:29;101480.69;;;29.48
72278;BMP280;61204;49.980;8.358;2022-08-06T14:45:13;101477.16;;;30.37
72278;BMP280;61204;49.980;8.358;2022-08-06T14:47:39;101485.66;;;30.39
72278;BMP280;61204;49.980;8.358;2022-08-06T14:50:06;101477.75;;;30.76
72278;BMP280;61204;49.980;8.358;2022-08-06T14:52:33;101472.91;;;30.38
72278;BMP280;61204;49.980;8.358;2022-08-06T14:54:59;101462.94;;;28.99
72278;BMP280;61204;49.980;8.358;2022-08-06T14:57:26;101469.19;;;28.77
72278;BMP280;61204;49.980;8.358;2022-08-06T14:59:53;101463.72;;;29.44
72278;BMP280;61204;49.980;8.358;2022-08-06T15:02:22;101461.59;;;29.18
72278;BMP280;61204;49.980;8.358;2022-08-06T15:04:49;101453.19;;;29.83
72278;BMP280;61204;49.980;8.358;2022-08-06T15:07:16;101450.34;;;29.43
72278;BMP280;61204;49.980;8.358;2022-08-06T15:09:42;101453.91;;;29.68
72278;BMP280;61204;49.980;8.358;2022-08-06T15:12:07;101442.34;;;28.70
72278;BMP280;61204;49.980;8.358;2022-08-06T15:14:33;101443.28;;;29.66
72278;BMP280;61204;49.980;8.358;2022-08-06T15:17:00;101429.13;;;30.11
72278;BMP280;61204;49.980;8.358;2022-08-06T15:19:26;101440.44;;;29.32
72278;BMP280;61204;49.980;8.358;2022-08-06T15:21:51;101447.09;;;28.33
72278;BMP280;61204;49.980;8.358;2022-08-06T15:24:17;101443.47;;;28.20
72278;BMP280;61204;49.980;8.358;2022-08-06T15:26:44;101444.41;;;28.59
72278;BMP280;61204;49.980;8.358;2022-08-06T15:29:11;101443.84;;;28.87
72278;BMP280;61204;49.980;8.358;2022-08-06T15:31:37;101442.19;;;28.40
72278;BMP280;61204;49.980;8.358;2022-08-06T15:34:03;101426.13;;;28.67
72278;BMP280;61204;49.980;8.358;2022-08-06T15:36:30;101427.88;;;28.07
72278;BMP280;61204;49.980;8.358;2022-08-06T15:38:57;101433.22;;;27.75
72278;BMP280;61204;49.980;8.358;2022-08-06T15:41:22;101423.38;;;27.07
72278;BMP280;61204;49.980;8.358;2022-08-06T15:43:50;101436.56;;;27.55
72278;BMP280;61204;49.980;8.358;2022-08-06T15:46:16;101436.53;;;28.36
72278;BMP280;61204;49.980;8.358;2022-08-06T15:48:42;101438.72;;;28.47
72278;BMP280;61204;49.980;8.358;2022-08-06T15:51:07;101436.66;;;27.65
72278;BMP280;61204;49.980;8.358;2022-08-06T15:53:33;101437.50;;;27.82
72278;BMP280;61204;49.980;8.358;2022-08-06T15:55:59;101423.19;;;27.56
72278;BMP280;61204;49.980;8.358;2022-08-06T15:58:25;101430.59;;;27.23
72278;BMP280;61204;49.980;8.358;2022-08-06T16:00:51;101420.16;;;26.77
72278;BMP280;61204;49.980;8.358;2022-08-06T16:03:17;101425.50;;;26.08
72278;BMP280;61204;49.980;8.358;2022-08-06T16:05:43;101420.41;;;25.97
72278;BMP280;61204;49.980;8.358;2022-08-06T16:08:10;101422.50;;;25.98
72278;BMP280;61204;49.980;8.358;2022-08-06T16:10:45;101418.16;;;25.87